Climatologie pour Saint-Brevin les Pins
Jour • Résumé pour avril 6, 2017 Système :  Métrique    Anglais   Mixte
« - 1 jour
+ 1 jour »
Jour Semaine Mois Année Personnalisé
  Maximum : Minimum : Moyenne :
Température sous abri : 18.2 °C 5.5 °C 11.4 °C
Point de rosée : 9.0 °C 4.3 °C 6.6 °C
Humidité : 93 % 50 % 74 %
Vitesse du vent : 22.5 km/h 0.0 km/h 6.8 km/h
Rafale : 32.2 km/h - -
Direction :- - ENE
Pression : 1030.0 hPa 1026.6 hPa -
Précipitations : 0.0 mm    
Historical Graphs
 
 
Tableau de données pour avril 6, 2017
Heure Tempé Pt rosée Pression Vent Vitesse Rafale Humidité Taux pluie (/hr) Soleil
00:00 8.9 °C 6.5 °C 1029.7 hPa NE 11.3 km/h 12.9 km/h 85 % 0.0 mm 0 W/m2
00:10 8.7 °C 6.3 °C 1029.7 hPa NNE 8.0 km/h 14.5 km/h 85 % 0.0 mm 0 W/m2
00:15 8.5 °C 6.3 °C 1029.7 hPa North 9.7 km/h 14.5 km/h 86 % 0.0 mm 0 W/m2
00:20 8.6 °C 6.4 °C 1030.0 hPa NNW 4.8 km/h 14.5 km/h 86 % 0.0 mm 0 W/m2
00:25 8.4 °C 6.2 °C 1030.0 hPa NNE 1.6 km/h 14.5 km/h 86 % 0.0 mm 0 W/m2
00:30 8.2 °C 6.2 °C 1030.0 hPa NE 8.0 km/h 14.5 km/h 87 % 0.0 mm 0 W/m2
00:35 8.2 °C 6.2 °C 1030.0 hPa NE 3.2 km/h 12.9 km/h 87 % 0.0 mm 0 W/m2
00:40 8.1 °C 6.0 °C 1029.7 hPa North 4.8 km/h 12.9 km/h 87 % 0.0 mm 0 W/m2
00:45 7.9 °C 6.1 °C 1029.7 hPa NNE 6.4 km/h 12.9 km/h 88 % 0.0 mm 0 W/m2
00:50 8.0 °C 6.1 °C 1030.0 hPa NNE 1.6 km/h 12.9 km/h 88 % 0.0 mm 0 W/m2
00:55 8.0 °C 6.1 °C 1030.0 hPa NNE 8.0 km/h 16.1 km/h 88 % 0.0 mm 0 W/m2
01:00 8.1 °C 6.2 °C 1029.7 hPa NNE 4.8 km/h 19.3 km/h 88 % 0.0 mm 0 W/m2
01:10 7.9 °C 6.1 °C 1029.7 hPa NE 12.9 km/h 14.5 km/h 88 % 0.0 mm 0 W/m2
01:15 7.9 °C 6.0 °C 1029.7 hPa NE 12.9 km/h 17.7 km/h 88 % 0.0 mm 0 W/m2
01:20 7.9 °C 6.0 °C 1029.7 hPa NE 3.2 km/h 22.5 km/h 88 % 0.0 mm 0 W/m2
01:25 7.8 °C 6.1 °C 1029.7 hPa ENE 11.3 km/h 22.5 km/h 89 % 0.0 mm 0 W/m2
01:30 7.8 °C 6.1 °C 1029.7 hPa NE 6.4 km/h 17.7 km/h 89 % 0.0 mm 0 W/m2
01:35 7.8 °C 6.1 °C 1029.7 hPa NE 16.1 km/h 19.3 km/h 89 % 0.0 mm 0 W/m2
01:40 7.8 °C 6.1 °C 1029.7 hPa North 1.6 km/h 19.3 km/h 89 % 0.0 mm 0 W/m2
01:45 7.8 °C 6.1 °C 1029.7 hPa North 1.6 km/h 17.7 km/h 89 % 0.0 mm 0 W/m2
01:50 7.8 °C 6.1 °C 1029.7 hPa North 6.4 km/h 16.1 km/h 89 % 0.0 mm 0 W/m2
01:55 7.7 °C 5.9 °C 1029.7 hPa NE 11.3 km/h 14.5 km/h 88 % 0.0 mm 0 W/m2
02:00 7.6 °C 5.9 °C 1029.7 hPa NNE 3.2 km/h 14.5 km/h 89 % 0.0 mm 0 W/m2
02:05 7.5 °C 5.8 °C 1029.7 hPa NNE 3.2 km/h 14.5 km/h 89 % 0.0 mm 0 W/m2
02:10 7.4 °C 5.7 °C 1029.7 hPa NNE 11.3 km/h 14.5 km/h 89 % 0.0 mm 0 W/m2
02:15 7.4 °C 5.7 °C 1029.7 hPa NNE 3.2 km/h 12.9 km/h 89 % 0.0 mm 0 W/m2
02:20 7.3 °C 5.6 °C 1029.7 hPa North 3.2 km/h 12.9 km/h 89 % 0.0 mm 0 W/m2
02:25 7.2 °C 5.5 °C 1029.7 hPa Calm   12.9 km/h 89 % 0.0 mm 0 W/m2
02:30 7.1 °C 5.6 °C 1029.3 hPa NE 3.2 km/h 12.9 km/h 90 % 0.0 mm 0 W/m2
02:35 7.1 °C 5.6 °C 1029.3 hPa Calm   12.9 km/h 90 % 0.0 mm 0 W/m2
02:40 7.2 °C 5.6 °C 1029.3 hPa Calm   11.3 km/h 90 % 0.0 mm 0 W/m2
02:45 7.2 °C 5.6 °C 1029.3 hPa NE 3.2 km/h 8.0 km/h 90 % 0.0 mm 0 W/m2
02:50 6.9 °C 5.4 °C 1029.3 hPa ENE 4.8 km/h 12.9 km/h 90 % 0.0 mm 0 W/m2
02:55 6.9 °C 5.4 °C 1029.3 hPa NE 1.6 km/h 12.9 km/h 90 % 0.0 mm 0 W/m2
03:00 7.0 °C 5.5 °C 1029.3 hPa NE 6.4 km/h 12.9 km/h 90 % 0.0 mm 0 W/m2
03:05 7.1 °C 5.5 °C 1029.3 hPa North 3.2 km/h 16.1 km/h 90 % 0.0 mm 0 W/m2
03:15 7.1 °C 5.5 °C 1029.3 hPa ENE 8.0 km/h 12.9 km/h 90 % 0.0 mm 0 W/m2
03:20 7.1 °C 5.4 °C 1029.3 hPa NE 3.2 km/h 11.3 km/h 89 % 0.0 mm 0 W/m2
03:25 7.1 °C 5.4 °C 1029.3 hPa ENE 1.6 km/h 14.5 km/h 89 % 0.0 mm 0 W/m2
03:30 7.0 °C 5.3 °C 1029.3 hPa Calm   14.5 km/h 89 % 0.0 mm 0 W/m2
03:35 6.8 °C 5.3 °C 1029.3 hPa NE 4.8 km/h 11.3 km/h 90 % 0.0 mm 0 W/m2
03:40 6.7 °C 5.1 °C 1029.3 hPa ENE 4.8 km/h 9.7 km/h 90 % 0.0 mm 0 W/m2
03:45 6.6 °C 5.0 °C 1029.3 hPa NE 4.8 km/h 11.3 km/h 90 % 0.0 mm 0 W/m2
03:50 6.5 °C 5.0 °C 1029.0 hPa NE 4.8 km/h 11.3 km/h 90 % 0.0 mm 0 W/m2
03:55 6.5 °C 5.1 °C 1029.3 hPa NE 1.6 km/h 8.0 km/h 91 % 0.0 mm 0 W/m2
04:00 6.4 °C 5.1 °C 1029.3 hPa NE 1.6 km/h 8.0 km/h 91 % 0.0 mm 0 W/m2
04:10 6.3 °C 4.9 °C 1029.3 hPa Calm   8.0 km/h 91 % 0.0 mm 0 W/m2
04:15 6.2 °C 4.8 °C 1029.3 hPa NE 3.2 km/h 8.0 km/h 91 % 0.0 mm 0 W/m2
04:20 6.0 °C 4.6 °C 1029.3 hPa NE 1.6 km/h 6.4 km/h 91 % 0.0 mm 0 W/m2
04:25 6.0 °C 4.8 °C 1029.0 hPa Calm   8.0 km/h 92 % 0.0 mm 0 W/m2
04:30 6.1 °C 4.9 °C 1029.3 hPa ENE 1.6 km/h 8.0 km/h 92 % 0.0 mm 0 W/m2
04:40 6.1 °C 4.9 °C 1029.3 hPa Calm   9.7 km/h 92 % 0.0 mm 0 W/m2
04:45 6.0 °C 4.8 °C 1029.0 hPa ENE 4.8 km/h 8.0 km/h 92 % 0.0 mm 0 W/m2
04:50 5.9 °C 4.7 °C 1029.0 hPa ENE 4.8 km/h 8.0 km/h 92 % 0.0 mm 0 W/m2
04:55 5.9 °C 4.7 °C 1029.0 hPa NE 3.2 km/h 8.0 km/h 92 % 0.0 mm 0 W/m2
05:00 5.8 °C 4.6 °C 1029.3 hPa NE 1.6 km/h 8.0 km/h 92 % 0.0 mm 0 W/m2
05:05 5.5 °C 4.3 °C 1029.3 hPa Calm   11.3 km/h 92 % 0.0 mm 0 W/m2
05:10 5.6 °C 4.5 °C 1029.3 hPa NE 3.2 km/h 11.3 km/h 93 % 0.0 mm 0 W/m2
05:15 5.7 °C 4.7 °C 1029.0 hPa ENE 3.2 km/h 11.3 km/h 93 % 0.0 mm 0 W/m2
05:25 5.9 °C 4.7 °C 1029.0 hPa NE 3.2 km/h 11.3 km/h 92 % 0.0 mm 0 W/m2
05:30 5.9 °C 4.7 °C 1029.0 hPa NE 3.2 km/h 9.7 km/h 92 % 0.0 mm 0 W/m2
05:35 6.0 °C 4.6 °C 1029.0 hPa NE 3.2 km/h 9.7 km/h 91 % 0.0 mm 0 W/m2
05:40 6.1 °C 4.7 °C 1029.0 hPa East 1.6 km/h 11.3 km/h 91 % 0.0 mm 0 W/m2
05:45 6.1 °C 4.8 °C 1029.0 hPa NE 3.2 km/h 14.5 km/h 91 % 0.0 mm 0 W/m2
05:50 6.1 °C 4.5 °C 1029.0 hPa ENE 9.7 km/h 14.5 km/h 90 % 0.0 mm 0 W/m2
05:55 6.1 °C 4.7 °C 1029.0 hPa ENE 4.8 km/h 14.5 km/h 91 % 0.0 mm 0 W/m2
06:00 6.1 °C 4.5 °C 1029.0 hPa ENE 3.2 km/h 11.3 km/h 90 % 0.0 mm 0 W/m2
06:05 6.1 °C 4.5 °C 1029.0 hPa NE 4.8 km/h 11.3 km/h 90 % 0.0 mm 0 W/m2
06:10 6.0 °C 4.5 °C 1029.0 hPa Calm   12.9 km/h 90 % 0.0 mm 0 W/m2
06:15 5.9 °C 4.6 °C 1029.0 hPa ENE 3.2 km/h 12.9 km/h 91 % 0.0 mm 0 W/m2
06:20 5.9 °C 4.5 °C 1029.0 hPa NE 8.0 km/h 12.9 km/h 91 % 0.0 mm 0 W/m2
06:25 5.8 °C 4.4 °C 1029.0 hPa Calm   12.9 km/h 91 % 0.0 mm 0 W/m2
06:30 5.7 °C 4.4 °C 1029.0 hPa NE 3.2 km/h 11.3 km/h 91 % 0.0 mm 0 W/m2
06:35 5.7 °C 4.5 °C 1029.0 hPa NE 3.2 km/h 14.5 km/h 92 % 0.0 mm 0 W/m2
06:40 5.8 °C 4.6 °C 1029.0 hPa ENE 11.3 km/h 16.1 km/h 92 % 0.0 mm 0 W/m2
06:45 6.0 °C 4.6 °C 1029.0 hPa East 14.5 km/h 16.1 km/h 91 % 0.0 mm 0 W/m2
06:50 6.2 °C 4.9 °C 1029.0 hPa ENE 4.8 km/h 17.7 km/h 91 % 0.0 mm 0 W/m2
06:55 6.3 °C 4.8 °C 1029.0 hPa ENE 4.8 km/h 17.7 km/h 90 % 0.0 mm 0 W/m2
07:00 6.3 °C 4.8 °C 1029.0 hPa East 8.0 km/h 17.7 km/h 90 % 0.0 mm 0 W/m2
07:05 6.2 °C 4.6 °C 1029.3 hPa ENE 16.1 km/h 17.7 km/h 90 % 0.0 mm 0 W/m2
07:10 6.2 °C 4.6 °C 1029.3 hPa ENE 11.3 km/h 17.7 km/h 90 % 0.0 mm 0 W/m2
07:15 6.2 °C 4.6 °C 1029.3 hPa ENE 16.1 km/h 17.7 km/h 90 % 0.0 mm 0 W/m2
07:20 6.1 °C 4.6 °C 1029.3 hPa NE 6.4 km/h 20.9 km/h 90 % 0.0 mm 0 W/m2
07:25 6.1 °C 4.6 °C 1029.3 hPa ENE 6.4 km/h 20.9 km/h 90 % 0.0 mm 0 W/m2
07:30 6.0 °C 4.5 °C 1029.3 hPa ENE 1.6 km/h 17.7 km/h 90 % 0.0 mm 0 W/m2
07:35 6.0 °C 4.5 °C 1029.3 hPa NE 6.4 km/h 17.7 km/h 90 % 0.0 mm 0 W/m2
07:40 5.8 °C 4.3 °C 1029.3 hPa NE 8.0 km/h 14.5 km/h 90 % 0.0 mm 0 W/m2
07:45 5.8 °C 4.3 °C 1029.3 hPa ENE 12.9 km/h 12.9 km/h 90 % 0.0 mm 5 W/m2
07:50 5.9 °C 4.4 °C 1029.3 hPa Calm   12.9 km/h 90 % 0.0 mm 9 W/m2
07:55 5.9 °C 4.4 °C 1029.7 hPa East 3.2 km/h 12.9 km/h 90 % 0.0 mm 11 W/m2
08:00 5.9 °C 4.4 °C 1029.7 hPa East 4.8 km/h 12.9 km/h 90 % 0.0 mm 14 W/m2
08:05 5.8 °C 4.3 °C 1029.7 hPa ENE 3.2 km/h 12.9 km/h 90 % 0.0 mm 16 W/m2
08:10 5.8 °C 4.3 °C 1029.7 hPa East 4.8 km/h 12.9 km/h 90 % 0.0 mm 23 W/m2
08:15 5.9 °C 4.6 °C 1029.7 hPa ENE 4.8 km/h 14.5 km/h 91 % 0.0 mm 26 W/m2
08:20 6.0 °C 4.6 °C 1029.7 hPa ENE 1.6 km/h 14.5 km/h 91 % 0.0 mm 32 W/m2
08:25 6.0 °C 4.5 °C 1030.0 hPa ENE 3.2 km/h 9.7 km/h 90 % 0.0 mm 33 W/m2
08:30 6.1 °C 4.7 °C 1030.0 hPa NE 4.8 km/h 8.0 km/h 91 % 0.0 mm 42 W/m2
08:35 6.1 °C 4.8 °C 1030.0 hPa NNE 4.8 km/h 11.3 km/h 91 % 0.0 mm 88 W/m2
08:40 6.2 °C 4.9 °C 1030.0 hPa ENE 3.2 km/h 11.3 km/h 91 % 0.0 mm 102 W/m2
08:45 6.4 °C 5.0 °C 1030.0 hPa Calm   9.7 km/h 91 % 0.0 mm 118 W/m2
08:50 6.7 °C 5.3 °C 1030.0 hPa NNE 1.6 km/h 9.7 km/h 91 % 0.0 mm 134 W/m2
08:55 6.8 °C 5.3 °C 1030.0 hPa NNE 3.2 km/h 6.4 km/h 90 % 0.0 mm 149 W/m2
09:00 7.1 °C 5.5 °C 1030.0 hPa Calm   6.4 km/h 90 % 0.0 mm 163 W/m2
09:05 7.3 °C 5.6 °C 1030.0 hPa North 3.2 km/h 6.4 km/h 89 % 0.0 mm 179 W/m2
09:10 7.4 °C 5.7 °C 1030.0 hPa Calm   8.0 km/h 89 % 0.0 mm 195 W/m2
09:15 7.6 °C 5.7 °C 1030.0 hPa Calm   8.0 km/h 88 % 0.0 mm 213 W/m2
09:20 7.8 °C 5.9 °C 1030.0 hPa NNE 4.8 km/h 9.7 km/h 88 % 0.0 mm 229 W/m2
09:25 8.1 °C 6.0 °C 1030.0 hPa ENE 8.0 km/h 12.9 km/h 87 % 0.0 mm 244 W/m2
09:30 8.4 °C 6.2 °C 1030.0 hPa ENE 3.2 km/h 12.9 km/h 86 % 0.0 mm 262 W/m2
09:35 8.7 °C 6.3 °C 1030.0 hPa ENE 4.8 km/h 11.3 km/h 85 % 0.0 mm 279 W/m2
09:40 8.8 °C 6.1 °C 1030.0 hPa ESE 1.6 km/h 16.1 km/h 83 % 0.0 mm 299 W/m2
09:45 9.1 °C 6.3 °C 1030.0 hPa NE 3.2 km/h 16.1 km/h 83 % 0.0 mm 309 W/m2
09:50 9.3 °C 6.4 °C 1030.0 hPa ENE 3.2 km/h 12.9 km/h 82 % 0.0 mm 329 W/m2
09:55 9.4 °C 6.3 °C 1030.0 hPa ENE 1.6 km/h 12.9 km/h 81 % 0.0 mm 343 W/m2
10:00 9.7 °C 6.6 °C 1030.0 hPa East 3.2 km/h 11.3 km/h 81 % 0.0 mm 359 W/m2
10:05 9.7 °C 6.3 °C 1030.0 hPa East 12.9 km/h 14.5 km/h 79 % 0.0 mm 373 W/m2
10:10 10.0 °C 6.3 °C 1030.0 hPa ENE 11.3 km/h 16.1 km/h 78 % 0.0 mm 387 W/m2
10:15 10.2 °C 6.5 °C 1030.0 hPa ENE 6.4 km/h 16.1 km/h 78 % 0.0 mm 406 W/m2
10:20 10.3 °C 6.5 °C 1030.0 hPa ENE 4.8 km/h 16.1 km/h 77 % 0.0 mm 420 W/m2
10:25 10.6 °C 6.9 °C 1030.0 hPa NNE 4.8 km/h 16.1 km/h 78 % 0.0 mm 436 W/m2
10:30 11.1 °C 6.8 °C 1030.0 hPa NNE 6.4 km/h 16.1 km/h 75 % 0.0 mm 450 W/m2
10:35 11.1 °C 6.6 °C 1030.0 hPa ENE 8.0 km/h 17.7 km/h 74 % 0.0 mm 464 W/m2
10:40 11.3 °C 6.6 °C 1029.7 hPa NE 9.7 km/h 17.7 km/h 73 % 0.0 mm 475 W/m2
10:45 11.5 °C 6.6 °C 1030.0 hPa ENE 3.2 km/h 17.7 km/h 72 % 0.0 mm 490 W/m2
10:50 11.7 °C 6.8 °C 1030.0 hPa ENE 11.3 km/h 17.7 km/h 72 % 0.0 mm 504 W/m2
10:55 12.2 °C 7.3 °C 1030.0 hPa East 11.3 km/h 17.7 km/h 72 % 0.0 mm 513 W/m2
11:00 12.5 °C 7.2 °C 1029.7 hPa East 3.2 km/h 17.7 km/h 70 % 0.0 mm 531 W/m2
11:05 12.6 °C 7.0 °C 1029.7 hPa ENE 12.9 km/h 20.9 km/h 69 % 0.0 mm 543 W/m2
11:10 12.4 °C 7.1 °C 1030.0 hPa East 17.7 km/h 22.5 km/h 70 % 0.0 mm 555 W/m2
11:15 12.6 °C 6.8 °C 1030.0 hPa ESE 12.9 km/h 22.5 km/h 68 % 0.0 mm 566 W/m2
11:20 12.9 °C 7.3 °C 1030.0 hPa ENE 8.0 km/h 22.5 km/h 69 % 0.0 mm 577 W/m2
11:25 13.1 °C 6.8 °C 1030.0 hPa ENE 12.9 km/h 22.5 km/h 66 % 0.0 mm 589 W/m2
11:30 13.5 °C 7.7 °C 1030.0 hPa ESE 3.2 km/h 17.7 km/h 68 % 0.0 mm 598 W/m2
11:40 13.8 °C 7.3 °C 1030.0 hPa NE 11.3 km/h 22.5 km/h 65 % 0.0 mm 624 W/m2
11:45 13.9 °C 7.4 °C 1030.0 hPa ENE 6.4 km/h 22.5 km/h 65 % 0.0 mm 635 W/m2
11:50 13.9 °C 7.2 °C 1030.0 hPa NE 16.1 km/h 22.5 km/h 64 % 0.0 mm 635 W/m2
11:55 14.1 °C 7.1 °C 1030.0 hPa NE 4.8 km/h 27.4 km/h 63 % 0.0 mm 643 W/m2
12:00 14.8 °C 6.8 °C 1030.0 hPa ENE 17.7 km/h 27.4 km/h 59 % 0.0 mm 663 W/m2
12:05 14.7 °C 6.2 °C 1030.0 hPa ESE 14.5 km/h 24.1 km/h 57 % 0.0 mm 673 W/m2
12:10 14.9 °C 7.2 °C 1029.7 hPa NE 14.5 km/h 25.7 km/h 60 % 0.0 mm 686 W/m2
12:15 14.8 °C 6.3 °C 1029.7 hPa ENE 4.8 km/h 27.4 km/h 57 % 0.0 mm 691 W/m2
12:20 15.0 °C 6.3 °C 1029.7 hPa NE 8.0 km/h 27.4 km/h 56 % 0.0 mm 701 W/m2
12:25 15.1 °C 6.1 °C 1029.7 hPa SE 8.0 km/h 24.1 km/h 55 % 0.0 mm 703 W/m2
12:30 15.2 °C 7.0 °C 1029.7 hPa ENE 8.0 km/h 20.9 km/h 58 % 0.0 mm 712 W/m2
12:35 15.2 °C 6.4 °C 1029.7 hPa East 20.9 km/h 25.7 km/h 56 % 0.0 mm 719 W/m2
12:40 15.4 °C 6.7 °C 1029.7 hPa East 20.9 km/h 25.7 km/h 56 % 0.0 mm 724 W/m2
12:45 15.3 °C 6.8 °C 1029.7 hPa ENE 16.1 km/h 24.1 km/h 57 % 0.0 mm 728 W/m2
12:50 15.8 °C 8.1 °C 1029.7 hPa East 12.9 km/h 20.9 km/h 60 % 0.0 mm 733 W/m2
12:55 15.7 °C 7.0 °C 1029.7 hPa ENE 8.0 km/h 22.5 km/h 56 % 0.0 mm 740 W/m2
13:00 15.4 °C 7.2 °C 1029.3 hPa NE 6.4 km/h 22.5 km/h 58 % 0.0 mm 742 W/m2
13:05 15.7 °C 7.9 °C 1029.3 hPa NE 11.3 km/h 22.5 km/h 60 % 0.0 mm 729 W/m2
13:10 15.9 °C 7.4 °C 1029.3 hPa NE 8.0 km/h 22.5 km/h 57 % 0.0 mm 751 W/m2
13:15 16.0 °C 8.2 °C 1029.3 hPa ENE 6.4 km/h 22.5 km/h 60 % 0.0 mm 759 W/m2
13:20 16.3 °C 6.9 °C 1029.3 hPa ESE 12.9 km/h 22.5 km/h 54 % 0.0 mm 759 W/m2
13:25 15.7 °C 6.4 °C 1029.3 hPa East 22.5 km/h 27.4 km/h 54 % 0.0 mm 763 W/m2
13:30 15.7 °C 6.6 °C 1029.0 hPa East 8.0 km/h 27.4 km/h 55 % 0.0 mm 763 W/m2
13:35 16.3 °C 7.0 °C 1029.0 hPa ENE 11.3 km/h 22.5 km/h 54 % 0.0 mm 763 W/m2
13:40 16.0 °C 6.7 °C 1029.0 hPa East 4.8 km/h 22.5 km/h 54 % 0.0 mm 770 W/m2
13:45 16.1 °C 7.3 °C 1029.0 hPa NE 9.7 km/h 22.5 km/h 56 % 0.0 mm 770 W/m2
13:50 16.2 °C 6.8 °C 1029.0 hPa ENE 8.0 km/h 22.5 km/h 54 % 0.0 mm 777 W/m2
13:55 16.4 °C 7.6 °C 1029.0 hPa East 14.5 km/h 22.5 km/h 56 % 0.0 mm 773 W/m2
14:00 16.5 °C 7.7 °C 1028.7 hPa ENE 6.4 km/h 22.5 km/h 56 % 0.0 mm 775 W/m2
14:10 16.6 °C 7.8 °C 1028.7 hPa East 6.4 km/h 27.4 km/h 56 % 0.0 mm 772 W/m2
14:15 16.4 °C 7.6 °C 1028.7 hPa ENE 16.1 km/h 27.4 km/h 56 % 0.0 mm 770 W/m2
14:20 16.8 °C 7.7 °C 1028.7 hPa NNE 6.4 km/h 24.1 km/h 55 % 0.0 mm 768 W/m2
14:25 16.9 °C 7.8 °C 1028.7 hPa East 6.4 km/h 22.5 km/h 55 % 0.0 mm 765 W/m2
14:30 16.8 °C 7.2 °C 1028.7 hPa ENE 14.5 km/h 24.1 km/h 53 % 0.0 mm 766 W/m2
14:35 17.2 °C 7.8 °C 1028.3 hPa East 12.9 km/h 24.1 km/h 54 % 0.0 mm 765 W/m2
14:40 17.2 °C 8.6 °C 1028.3 hPa NE 19.3 km/h 24.1 km/h 57 % 0.0 mm 759 W/m2
14:45 17.2 °C 8.6 °C 1028.3 hPa NNE 11.3 km/h 24.1 km/h 57 % 0.0 mm 763 W/m2
14:50 16.9 °C 7.5 °C 1028.3 hPa ENE 8.0 km/h 20.9 km/h 54 % 0.0 mm 747 W/m2
14:55 17.4 °C 8.0 °C 1028.3 hPa NNE 8.0 km/h 20.9 km/h 54 % 0.0 mm 749 W/m2
15:00 16.9 °C 7.6 °C 1028.3 hPa NE 11.3 km/h 24.1 km/h 54 % 0.0 mm 747 W/m2
15:05 17.4 °C 8.0 °C 1028.3 hPa NNE 11.3 km/h 24.1 km/h 54 % 0.0 mm 747 W/m2
15:10 17.6 °C 8.5 °C 1028.0 hPa ENE 14.5 km/h 24.1 km/h 55 % 0.0 mm 738 W/m2
15:15 17.5 °C 8.1 °C 1028.0 hPa NE 4.8 km/h 22.5 km/h 54 % 0.0 mm 735 W/m2
15:20 17.3 °C 7.1 °C 1028.0 hPa ENE 12.9 km/h 32.2 km/h 51 % 0.0 mm 731 W/m2
15:25 17.2 °C 7.5 °C 1028.0 hPa ESE 16.1 km/h 32.2 km/h 53 % 0.0 mm 726 W/m2
15:30 17.6 °C 7.6 °C 1028.0 hPa East 17.7 km/h 25.7 km/h 52 % 0.0 mm 717 W/m2
15:35 17.4 °C 7.8 °C 1027.7 hPa ENE 16.1 km/h 25.7 km/h 53 % 0.0 mm 714 W/m2
15:40 17.5 °C 7.5 °C 1027.7 hPa ENE 6.4 km/h 22.5 km/h 52 % 0.0 mm 703 W/m2
15:45 17.8 °C 8.4 °C 1027.7 hPa ENE 20.9 km/h 24.1 km/h 54 % 0.0 mm 698 W/m2
15:55 18.1 °C 8.0 °C 1027.7 hPa ESE 8.0 km/h 24.1 km/h 52 % 0.0 mm 684 W/m2
16:00 17.9 °C 8.4 °C 1027.7 hPa NE 16.1 km/h 24.1 km/h 54 % 0.0 mm 677 W/m2
16:05 17.7 °C 7.7 °C 1027.7 hPa NE 6.4 km/h 24.1 km/h 52 % 0.0 mm 670 W/m2
16:10 17.7 °C 7.7 °C 1027.7 hPa ENE 11.3 km/h 22.5 km/h 52 % 0.0 mm 657 W/m2
16:20 17.8 °C 8.1 °C 1027.7 hPa ENE 17.7 km/h 22.5 km/h 53 % 0.0 mm 640 W/m2
16:25 17.8 °C 8.1 °C 1027.7 hPa NNE 9.7 km/h 24.1 km/h 53 % 0.0 mm 626 W/m2
16:30 17.6 °C 7.6 °C 1027.3 hPa East 20.9 km/h 25.7 km/h 52 % 0.0 mm 615 W/m2
16:35 17.7 °C 7.7 °C 1027.3 hPa ENE 12.9 km/h 25.7 km/h 52 % 0.0 mm 608 W/m2
16:40 17.8 °C 8.4 °C 1027.3 hPa ENE 14.5 km/h 25.7 km/h 54 % 0.0 mm 589 W/m2
16:45 17.8 °C 7.6 °C 1027.3 hPa NE 9.7 km/h 25.7 km/h 51 % 0.0 mm 582 W/m2
16:50 17.8 °C 8.1 °C 1027.3 hPa East 19.3 km/h 25.7 km/h 53 % 0.0 mm 570 W/m2
16:55 17.8 °C 8.1 °C 1027.3 hPa NNE 11.3 km/h 24.1 km/h 53 % 0.0 mm 563 W/m2
17:00 17.9 °C 7.3 °C 1027.0 hPa East 14.5 km/h 27.4 km/h 50 % 0.0 mm 550 W/m2
17:05 17.9 °C 9.0 °C 1027.0 hPa ENE 11.3 km/h 27.4 km/h 56 % 0.0 mm 536 W/m2
17:10 18.2 °C 8.2 °C 1027.0 hPa East 22.5 km/h 24.1 km/h 52 % 0.0 mm 519 W/m2
17:15 18.0 °C 7.7 °C 1027.0 hPa East 14.5 km/h 24.1 km/h 51 % 0.0 mm 510 W/m2
17:20 17.8 °C 8.7 °C 1027.0 hPa ENE 14.5 km/h 24.1 km/h 55 % 0.0 mm 496 W/m2
17:25 17.7 °C 7.7 °C 1027.0 hPa East 12.9 km/h 24.1 km/h 52 % 0.0 mm 480 W/m2
17:30 17.6 °C 7.9 °C 1027.0 hPa North 14.5 km/h 24.1 km/h 53 % 0.0 mm 469 W/m2
17:35 17.8 °C 8.6 °C 1027.0 hPa NNE 4.8 km/h 20.9 km/h 55 % 0.0 mm 454 W/m2
17:40 17.6 °C 8.7 °C 1027.0 hPa North 6.4 km/h 24.1 km/h 56 % 0.0 mm 353 W/m2
17:45 17.8 °C 8.7 °C 1026.6 hPa ENE 17.7 km/h 24.1 km/h 55 % 0.0 mm 218 W/m2
17:50 17.6 °C 7.9 °C 1027.0 hPa North 6.4 km/h 22.5 km/h 53 % 0.0 mm 408 W/m2
17:55 17.4 °C 8.3 °C 1027.0 hPa East 3.2 km/h 22.5 km/h 55 % 0.0 mm 399 W/m2
18:00 17.2 °C 8.6 °C 1027.0 hPa NNE 6.4 km/h 19.3 km/h 57 % 0.0 mm 373 W/m2
18:05 17.1 °C 7.7 °C 1027.0 hPa North 16.1 km/h 19.3 km/h 54 % 0.0 mm 376 W/m2
18:10 17.1 °C 8.0 °C 1026.6 hPa ENE 6.4 km/h 20.9 km/h 55 % 0.0 mm 360 W/m2
18:15 17.1 °C 8.0 °C 1026.6 hPa NE 14.5 km/h 20.9 km/h 55 % 0.0 mm 346 W/m2
18:20 17.1 °C 7.9 °C 1026.6 hPa ENE 17.7 km/h 20.9 km/h 55 % 0.0 mm 329 W/m2
18:25 17.0 °C 7.6 °C 1026.6 hPa NNE 12.9 km/h 22.5 km/h 54 % 0.0 mm 316 W/m2
18:30 17.1 °C 7.7 °C 1026.6 hPa NE 11.3 km/h 24.1 km/h 54 % 0.0 mm 301 W/m2
18:35 16.8 °C 7.7 °C 1026.6 hPa North 3.2 km/h 24.1 km/h 55 % 0.0 mm 288 W/m2
18:40 16.7 °C 7.9 °C 1026.6 hPa ENE 4.8 km/h 20.9 km/h 56 % 0.0 mm 269 W/m2
18:45 16.8 °C 8.2 °C 1026.6 hPa NE 9.7 km/h 19.3 km/h 57 % 0.0 mm 251 W/m2
18:50 16.7 °C 8.2 °C 1026.6 hPa North 9.7 km/h 20.9 km/h 57 % 0.0 mm 116 W/m2
18:55 16.6 °C 8.3 °C 1026.6 hPa ENE 4.8 km/h 20.9 km/h 58 % 0.0 mm 60 W/m2
19:00 16.4 °C 7.9 °C 1026.6 hPa NE 12.9 km/h 17.7 km/h 57 % 0.0 mm 62 W/m2
19:05 16.3 °C 7.7 °C 1026.6 hPa NE 11.3 km/h 20.9 km/h 57 % 0.0 mm 58 W/m2
19:10 16.1 °C 8.0 °C 1026.6 hPa ENE 6.4 km/h 20.9 km/h 59 % 0.0 mm 56 W/m2
19:15 15.9 °C 7.9 °C 1026.6 hPa ENE 14.5 km/h 20.9 km/h 59 % 0.0 mm 63 W/m2
19:20 15.8 °C 8.0 °C 1026.6 hPa NE 16.1 km/h 20.9 km/h 60 % 0.0 mm 60 W/m2
19:25 15.7 °C 7.7 °C 1026.6 hPa NE 14.5 km/h 19.3 km/h 59 % 0.0 mm 51 W/m2
19:30 15.6 °C 7.8 °C 1026.6 hPa NE 6.4 km/h 20.9 km/h 60 % 0.0 mm 47 W/m2
19:35 15.4 °C 8.0 °C 1026.6 hPa ENE 1.6 km/h 20.9 km/h 61 % 0.0 mm 46 W/m2
19:40 15.3 °C 7.8 °C 1026.6 hPa NE 4.8 km/h 12.9 km/h 61 % 0.0 mm 42 W/m2
19:45 15.3 °C 7.8 °C 1026.6 hPa NE 1.6 km/h 16.1 km/h 61 % 0.0 mm 39 W/m2
19:50 15.1 °C 8.1 °C 1026.6 hPa ENE 8.0 km/h 16.1 km/h 63 % 0.0 mm 37 W/m2
19:55 14.9 °C 8.0 °C 1026.6 hPa East 9.7 km/h 12.9 km/h 63 % 0.0 mm 35 W/m2
20:00 14.8 °C 7.9 °C 1026.6 hPa ESE 1.6 km/h 12.9 km/h 63 % 0.0 mm 30 W/m2
20:05 14.7 °C 7.9 °C 1026.6 hPa NE 3.2 km/h 12.9 km/h 64 % 0.0 mm 28 W/m2
20:10 14.4 °C 7.9 °C 1026.6 hPa NE 6.4 km/h 11.3 km/h 65 % 0.0 mm 25 W/m2
20:15 14.2 °C 7.9 °C 1026.6 hPa NE 4.8 km/h 9.7 km/h 66 % 0.0 mm 21 W/m2
20:20 13.9 °C 7.9 °C 1026.6 hPa Calm   12.9 km/h 67 % 0.0 mm 18 W/m2
20:25 13.8 °C 8.0 °C 1026.6 hPa ENE 4.8 km/h 12.9 km/h 68 % 0.0 mm 16 W/m2
20:30 13.7 °C 7.9 °C 1026.6 hPa NE 4.8 km/h 11.3 km/h 68 % 0.0 mm 12 W/m2
20:35 13.5 °C 7.7 °C 1026.6 hPa ENE 1.6 km/h 11.3 km/h 68 % 0.0 mm 9 W/m2
20:40 13.3 °C 7.9 °C 1026.6 hPa NE 1.6 km/h 9.7 km/h 70 % 0.0 mm 7 W/m2
20:45 13.1 °C 7.9 °C 1026.6 hPa Calm   9.7 km/h 71 % 0.0 mm 0 W/m2
20:50 13.0 °C 7.9 °C 1026.6 hPa ENE 3.2 km/h 11.3 km/h 71 % 0.0 mm 0 W/m2
20:55 12.8 °C 7.9 °C 1026.6 hPa Calm   11.3 km/h 72 % 0.0 mm 0 W/m2
21:00 12.7 °C 7.7 °C 1026.6 hPa Calm   8.0 km/h 72 % 0.0 mm 0 W/m2
21:05 12.4 °C 7.7 °C 1026.6 hPa Calm   6.4 km/h 73 % 0.0 mm 0 W/m2
21:10 12.2 °C 7.7 °C 1026.6 hPa Calm   8.0 km/h 74 % 0.0 mm 0 W/m2
21:15 12.0 °C 7.5 °C 1026.6 hPa ENE 3.2 km/h 8.0 km/h 74 % 0.0 mm 0 W/m2
21:20 11.9 °C 7.6 °C 1026.6 hPa ENE 4.8 km/h 4.8 km/h 75 % 0.0 mm 0 W/m2
21:25 11.7 °C 7.6 °C 1027.0 hPa ENE 1.6 km/h 4.8 km/h 76 % 0.0 mm 0 W/m2
21:30 11.4 °C 7.3 °C 1027.0 hPa Calm   6.4 km/h 76 % 0.0 mm 0 W/m2
21:35 11.3 °C 7.4 °C 1027.0 hPa Calm   12.9 km/h 77 % 0.0 mm 0 W/m2
21:40 11.4 °C 7.6 °C 1027.0 hPa ENE 4.8 km/h 12.9 km/h 77 % 0.0 mm 0 W/m2
21:45 11.7 °C 7.6 °C 1027.0 hPa Calm   11.3 km/h 76 % 0.0 mm 0 W/m2
21:50 11.7 °C 7.4 °C 1027.0 hPa East 3.2 km/h 8.0 km/h 75 % 0.0 mm 0 W/m2
21:55 11.3 °C 7.2 °C 1027.0 hPa Calm   8.0 km/h 76 % 0.0 mm 0 W/m2
22:00 10.7 °C 6.9 °C 1027.0 hPa Calm   4.8 km/h 77 % 0.0 mm 0 W/m2
22:05 10.6 °C 7.1 °C 1027.0 hPa Calm   6.4 km/h 79 % 0.0 mm 0 W/m2
22:10 10.3 °C 7.0 °C 1027.0 hPa Calm   6.4 km/h 80 % 0.0 mm 0 W/m2
22:15 10.0 °C 6.7 °C 1027.3 hPa NNE 3.2 km/h 6.4 km/h 80 % 0.0 mm 0 W/m2
22:20 9.8 °C 6.8 °C 1027.3 hPa NNE 3.2 km/h 8.0 km/h 82 % 0.0 mm 0 W/m2
22:25 10.0 °C 7.1 °C 1027.3 hPa NE 1.6 km/h 9.7 km/h 82 % 0.0 mm 0 W/m2
22:30 10.1 °C 7.2 °C 1027.3 hPa NE 1.6 km/h 9.7 km/h 82 % 0.0 mm 0 W/m2
22:35 9.9 °C 7.0 °C 1027.3 hPa Calm   4.8 km/h 82 % 0.0 mm 0 W/m2
22:40 9.8 °C 7.1 °C 1027.3 hPa Calm   8.0 km/h 83 % 0.0 mm 0 W/m2
22:45 9.9 °C 7.2 °C 1027.3 hPa NE 3.2 km/h 12.9 km/h 83 % 0.0 mm 0 W/m2
22:50 10.2 °C 7.4 °C 1027.3 hPa NE 1.6 km/h 12.9 km/h 83 % 0.0 mm 0 W/m2
22:55 10.1 °C 7.4 °C 1027.3 hPa NE 6.4 km/h 11.3 km/h 83 % 0.0 mm 0 W/m2
23:00 10.2 °C 7.5 °C 1027.7 hPa NE 1.6 km/h 11.3 km/h 83 % 0.0 mm 0 W/m2
23:05 10.3 °C 7.5 °C 1027.3 hPa NE 3.2 km/h 9.7 km/h 83 % 0.0 mm 0 W/m2
23:10 10.4 °C 7.6 °C 1027.3 hPa NE 1.6 km/h 9.7 km/h 83 % 0.0 mm 0 W/m2
23:15 10.4 °C 7.4 °C 1027.3 hPa NE 1.6 km/h 11.3 km/h 82 % 0.0 mm 0 W/m2
23:20 10.5 °C 7.6 °C 1027.3 hPa ENE 1.6 km/h 16.1 km/h 82 % 0.0 mm 0 W/m2
23:25 10.5 °C 7.6 °C 1027.3 hPa NE 1.6 km/h 16.1 km/h 82 % 0.0 mm 0 W/m2
23:35 10.5 °C 7.6 °C 1027.7 hPa Calm   14.5 km/h 82 % 0.0 mm 0 W/m2
23:40 10.4 °C 7.5 °C 1027.7 hPa NNE 6.4 km/h 12.9 km/h 82 % 0.0 mm 0 W/m2
23:50 10.1 °C 7.5 °C 1027.7 hPa NNE 9.7 km/h 11.3 km/h 84 % 0.0 mm 0 W/m2
23:55 9.9 °C 7.4 °C 1027.7 hPa NE 4.8 km/h 12.9 km/h 84 % 0.0 mm 0 W/m2
Avec l'autorisation de Weather Underground - 1.75 mb